Time;durP1;ratioP1;P1;durP2;ratioP2;P2;SDS_P1;SDS_P2;PMS_P1;PMS_P2;Temp;Humidity;BMP_temperature;BMP_pressure;BME280_temperature;BME280_humidity;BME280_pressure;Samples;Min_cycle;Max_cycle;Signal;HPM_P1;HPM_P2
2021/05/23 00:01:59;;;;;;;;;;;;;;;8.43;79.68;99834.90;102440;1120;80983;-59
2021/05/23 00:04:05;;;;;;;;;;;;;;;8.41;79.73;99831.54;102490;1121;80924;-59
2021/05/23 00:06:09;;;;;;;;;;;;;;;8.40;79.83;99842.51;102457;1120;81521;-59
2021/05/23 00:08:16;;;;;;;;;;;;;;;8.40;80.02;99832.58;102457;1121;80881;-59
2021/05/23 00:10:22;;;;;;;;;;;;;;;8.38;79.78;99831.91;102418;1120;81123;-58
2021/05/23 00:12:27;;;;;;;;;;;;;;;8.36;80.06;99831.28;102442;1120;81211;-58
2021/05/23 00:14:31;;;;;;;;;;;;;;;8.40;80.05;99845.20;102430;1120;82403;-57
2021/05/23 00:16:36;;;;;;;;;;;;;;;8.38;79.85;99833.80;102467;1120;82813;-58
2021/05/23 00:18:43;;;;;;;;;;;;;;;8.41;79.98;99839.61;102440;1120;81791;-57
2021/05/23 00:20:47;;;;;;;;;;;;;;;8.35;80.09;99829.59;102446;1120;81740;-58
2021/05/23 00:22:56;;;;;;;;;;;;;;;8.37;80.00;99840.19;102458;1120;81084;-58
2021/05/23 00:25:04;;;;;;;;;;;;;;;8.37;80.40;99834.81;102437;1120;81063;-57
2021/05/23 00:27:09;;;;;;;;;;;;;;;8.40;80.03;99831.74;102454;1120;81166;-57
2021/05/23 00:29:15;;;;;;;;;;;;;;;8.41;79.93;99836.92;102434;1121;80549;-58
2021/05/23 00:31:20;;;;;;;;;;;;;;;8.42;80.04;99843.98;102448;1120;81535;-58
2021/05/23 00:33:26;;;;;;;;;;;;;;;8.45;79.98;99840.92;102429;1121;81023;-57
2021/05/23 00:35:31;;;;;;;;;;;;;;;8.44;79.89;99836.55;102461;1120;80850;-58
2021/05/23 00:37:36;;;;;;;;;;;;;;;8.43;80.01;99837.59;102458;1120;80902;-57
2021/05/23 00:39:40;;;;;;;;;;;;;;;8.42;79.78;99845.84;102448;1121;81978;-58
2021/05/23 00:41:48;;;;;;;;;;;;;;;8.40;79.97;99851.42;102428;1120;80086;-59
2021/05/23 00:43:52;;;;;;;;;;;;;;;8.44;79.92;99847.31;102439;1120;81303;-58
2021/05/23 00:46:00;;;;;;;;;;;;;;;8.45;80.15;99843.61;102431;1120;81178;-58
2021/05/23 00:48:07;;;;;;;;;;;;;;;8.47;79.88;99848.79;102438;1120;81623;-58
2021/05/23 00:50:15;;;;;;;;;;;;;;;8.48;80.03;99843.23;102457;1121;80123;-59
2021/05/23 00:52:19;;;;;;;;;;;;;;;8.46;79.99;99850.64;102457;1120;79856;-58
2021/05/23 00:54:24;;;;;;;;;;;;;;;8.45;80.09;99850.84;102433;1120;80456;-57
2021/05/23 00:56:31;;;;;;;;;;;;;;;8.48;80.01;99848.62;102431;1121;80777;-57
2021/05/23 00:58:36;;;;;;;;;;;;;;;8.49;79.95;99850.27;102447;1120;79996;-57
2021/05/23 01:01:11;;;;;;;;;;;;;;;8.52;80.00;99851.74;102452;1121;80974;-57
2021/05/23 01:03:52;;;;;;;;;;;;;;;8.53;79.84;99850.73;102446;1121;79786;-57
2021/05/23 01:06:04;;;;;;;;;;;;;;;8.52;79.94;99852.58;102437;1121;81696;-58
2021/05/23 01:08:08;;;;;;;;;;;;;;;8.53;79.92;99856.11;102424;1120;82089;-58
2021/05/23 01:10:15;;;;;;;;;;;;;;;8.53;79.83;99862.34;102409;1121;81485;-57
2021/05/23 01:12:49;;;;;;;;;;;;;;;8.55;79.70;99860.28;102459;1120;81461;-57
2021/05/23 01:15:11;;;;;;;;;;;;;;;8.59;79.98;99858.05;102444;1120;81138;-57
2021/05/23 01:17:22;;;;;;;;;;;;;;;8.59;79.94;99860.75;102443;1121;80046;-57
2021/05/23 01:19:40;;;;;;;;;;;;;;;8.60;79.85;99854.32;102443;1120;81535;-58
2021/05/23 01:21:48;;;;;;;;;;;;;;;8.59;79.90;99864.28;102433;1120;80367;-58
2021/05/23 01:23:55;;;;;;;;;;;;;;;8.56;79.82;99864.66;102463;1120;80985;-56
2021/05/23 01:26:06;;;;;;;;;;;;;;;8.55;79.76;99868.36;102459;1121;80872;-58
2021/05/23 01:28:11;;;;;;;;;;;;;;;8.53;79.80;99878.49;102471;1121;81184;-58
2021/05/23 01:30:19;;;;;;;;;;;;;;;8.51;79.86;99869.78;102466;1120;79787;-58
2021/05/23 01:32:24;;;;;;;;;;;;;;;8.50;79.57;99868.09;102450;1121;81135;-57
2021/05/23 01:34:29;;;;;;;;;;;;;;;8.50;79.76;99873.48;102487;1120;81131;-58
2021/05/23 01:36:38;;;;;;;;;;;;;;;8.50;79.72;99870.79;102437;1120;80364;-57
2021/05/23 01:38:47;;;;;;;;;;;;;;;8.51;79.65;99875.16;102490;1120;80627;-58
2021/05/23 01:40:55;;;;;;;;;;;;;;;8.50;79.47;99864.56;102447;1121;82305;-58
2021/05/23 01:43:01;;;;;;;;;;;;;;;8.50;79.83;99873.48;102456;1120;81670;-59
2021/05/23 01:45:08;;;;;;;;;;;;;;;8.50;79.79;99873.48;102471;1120;81745;-59
2021/05/23 01:47:13;;;;;;;;;;;;;;;8.47;79.69;99879.23;102478;1120;81660;-59
2021/05/23 01:49:18;;;;;;;;;;;;;;;8.47;79.60;99873.02;102454;1121;79881;-59
2021/05/23 01:51:23;;;;;;;;;;;;;;;8.43;79.56;99869.89;102480;1120;81031;-58
2021/05/23 01:53:31;;;;;;;;;;;;;;;8.43;79.72;99875.27;102433;1121;81517;-59
2021/05/23 01:55:36;;;;;;;;;;;;;;;8.48;79.64;99864.77;102475;1121;80430;-58
2021/05/23 01:57:41;;;;;;;;;;;;;;;8.50;79.83;99878.02;102497;1121;80933;-57
2021/05/23 01:59:46;;;;;;;;;;;;;;;8.59;79.96;99875.05;102449;1120;80120;-58
2021/05/23 02:01:54;;;;;;;;;;;;;;;8.67;80.17;99880.32;102472;1120;81698;-58
2021/05/23 02:04:01;;;;;;;;;;;;;;;8.76;80.14;99883.73;102486;1120;80821;-58
2021/05/23 02:06:06;;;;;;;;;;;;;;;8.81;79.79;99887.53;102472;1120;82332;-59
2021/05/23 02:08:11;;;;;;;;;;;;;;;8.86;79.89;99882.40;102446;1120;81201;-58
2021/05/23 02:10:19;;;;;;;;;;;;;;;8.93;79.62;99879.75;102513;1120;81604;-59
2021/05/23 02:12:24;;;;;;;;;;;;;;;9.02;79.82;99893.94;102453;1120;81195;-57
2021/05/23 02:14:29;;;;;;;;;;;;;;;9.08;79.86;99882.40;102467;1120;80955;-57
2021/05/23 02:16:34;;;;;;;;;;;;;;;9.14;79.75;99889.72;102464;1120;81620;-56
2021/05/23 02:18:39;;;;;;;;;;;;;;;9.16;79.89;99893.05;102498;1120;81049;-58
2021/05/23 02:20:43;;;;;;;;;;;;;;;9.21;79.89;99898.69;102463;1120;80239;-57
2021/05/23 02:22:49;;;;;;;;;;;;;;;9.20;79.43;99894.34;102448;1121;80664;-56
2021/05/23 02:24:54;;;;;;;;;;;;;;;9.20;79.67;99905.13;102329;1124;81908;-57
2021/05/23 02:26:59;;;;;;;;;;;;;;;9.18;79.54;99905.30;102454;1120;80465;-57
2021/05/23 02:29:04;;;;;;;;;;;;;;;9.19;79.34;99906.14;102462;1120;80678;-60
2021/05/23 02:31:08;;;;;;;;;;;;;;;9.21;79.46;99910.31;102462;1120;80606;-58
2021/05/23 02:33:15;;;;;;;;;;;;;;;9.21;79.29;99914.86;102461;1120;81788;-58
2021/05/23 02:35:22;;;;;;;;;;;;;;;9.21;79.62;99918.39;102513;1121;81217;-58
2021/05/23 02:37:29;;;;;;;;;;;;;;;9.22;79.48;99911.99;102451;1121;81683;-58
2021/05/23 02:39:34;;;;;;;;;;;;;;;9.25;79.52;99916.16;102448;1120;80066;-58
2021/05/23 02:41:41;;;;;;;;;;;;;;;9.27;79.41;99914.94;102462;1120;81366;-58
2021/05/23 02:43:46;;;;;;;;;;;;;;;9.30;79.34;99913.72;102427;1120;81662;-59
2021/05/23 02:45:51;;;;;;;;;;;;;;;9.32;79.31;99917.88;102442;1120;81730;-58
2021/05/23 02:47:56;;;;;;;;;;;;;;;9.32;79.12;99919.73;102487;1121;80861;-58
2021/05/23 02:50:01;;;;;;;;;;;;;;;9.32;79.54;99922.44;102506;1121;81249;-58
2021/05/23 02:52:06;;;;;;;;;;;;;;;9.38;79.14;99929.75;102459;1120;82306;-58
2021/05/23 02:54:11;;;;;;;;;;;;;;;9.38;79.45;99922.51;102471;1120;80163;-59
2021/05/23 02:56:15;;;;;;;;;;;;;;;9.43;79.19;99921.91;102312;1123;82012;-58
2021/05/23 02:58:21;;;;;;;;;;;;;;;9.47;79.30;99918.66;102456;1121;80542;-58
2021/05/23 03:00:29;;;;;;;;;;;;;;;9.55;79.11;99920.38;102464;1120;81145;-58
2021/05/23 03:02:37;;;;;;;;;;;;;;;9.59;78.91;99915.41;102436;1120;80356;-58
2021/05/23 03:04:42;;;;;;;;;;;;;;;9.63;79.09;99917.55;102472;1120;80317;-58
2021/05/23 03:06:46;;;;;;;;;;;;;;;9.66;78.81;99925.25;102439;1120;81365;-58
2021/05/23 03:08:52;;;;;;;;;;;;;;;9.73;78.89;99925.28;102487;1120;81772;-58
2021/05/23 03:10:56;;;;;;;;;;;;;;;9.74;78.73;99926.96;102483;1120;81683;-56
2021/05/23 03:13:06;;;;;;;;;;;;;;;9.78;79.07;99934.45;102440;1120;81647;-58
2021/05/23 03:15:13;;;;;;;;;;;;;;;9.84;78.70;99936.38;102470;1121;80812;-59
2021/05/23 03:17:17;;;;;;;;;;;;;;;9.91;78.76;99929.19;102434;1120;81364;-59
2021/05/23 03:19:25;;;;;;;;;;;;;;;9.99;78.75;99929.03;102495;1120;81354;-58
2021/05/23 03:21:30;;;;;;;;;;;;;;;10.04;78.80;99928.43;102458;1120;80771;-58
2021/05/23 03:23:34;;;;;;;;;;;;;;;10.05;78.51;99927.41;102458;1120;82477;-58
2021/05/23 03:25:39;;;;;;;;;;;;;;;10.06;78.42;99923.66;102444;1120;81016;-59
2021/05/23 03:27:44;;;;;;;;;;;;;;;10.03;78.38;99927.59;102439;1120;81456;-58
2021/05/23 03:29:48;;;;;;;;;;;;;;;10.05;78.45;99930.92;102463;1120;82321;-58
2021/05/23 03:31:56;;;;;;;;;;;;;;;10.04;78.31;99923.88;102457;1120;82028;-58
2021/05/23 03:34:04;;;;;;;;;;;;;;;10.05;78.48;99925.52;102443;1121;82307;-58
2021/05/23 03:36:11;;;;;;;;;;;;;;;10.09;78.30;99937.60;102457;1120;80176;-58
2021/05/23 03:38:16;;;;;;;;;;;;;;;10.20;78.34;99927.31;102465;1120;81697;-58
2021/05/23 03:40:23;;;;;;;;;;;;;;;10.33;78.25;99932.81;102434;1120;81362;-58
2021/05/23 03:42:28;;;;;;;;;;;;;;;10.44;78.21;99937.62;102454;1120;82061;-59
2021/05/23 03:44:33;;;;;;;;;;;;;;;10.57;78.42;99933.15;102434;1120;82015;-58
2021/05/23 03:46:37;;;;;;;;;;;;;;;10.63;78.24;99942.28;102467;1121;81103;-59
2021/05/23 03:48:42;;;;;;;;;;;;;;;10.68;78.00;99930.90;102491;1121;81094;-58
2021/05/23 03:50:46;;;;;;;;;;;;;;;10.70;78.31;99940.47;102447;1121;79818;-58
2021/05/23 03:52:55;;;;;;;;;;;;;;;10.71;77.80;99936.74;102450;1120;81449;-60
2021/05/23 03:54:59;;;;;;;;;;;;;;;10.68;77.45;99943.35;102452;1120;81102;-58
2021/05/23 03:57:05;;;;;;;;;;;;;;;10.65;77.54;99942.94;102449;1120;80109;-58
2021/05/23 03:59:10;;;;;;;;;;;;;;;10.64;77.49;99947.50;102449;1120;81153;-59
2021/05/23 04:01:15;;;;;;;;;;;;;;;10.64;77.32;99946.66;102420;1120;80695;-58
2021/05/23 04:03:26;;;;;;;;;;;;;;;10.69;77.15;99941.48;102466;1120;80021;-58
2021/05/23 04:05:32;;;;;;;;;;;;;;;10.72;77.25;99938.39;102322;1123;81148;-58
2021/05/23 04:07:36;;;;;;;;;;;;;;;10.81;77.38;99941.75;102444;1121;81890;-59
2021/05/23 04:09:41;;;;;;;;;;;;;;;10.87;77.34;99939.09;102317;1123;81159;-58
2021/05/23 04:11:50;;;;;;;;;;;;;;;10.83;77.33;99940.52;102333;1123;81543;-60
2021/05/23 04:13:55;;;;;;;;;;;;;;;10.90;77.25;99944.09;102469;1121;81359;-59
2021/05/23 04:15:59;;;;;;;;;;;;;;;10.90;77.33;99944.09;102451;1120;81512;-60
2021/05/23 04:18:05;;;;;;;;;;;;;;;10.95;77.11;99943.47;102446;1120;80979;-58
2021/05/23 04:20:14;;;;;;;;;;;;;;;11.00;77.29;99940.98;102472;1121;80819;-58
2021/05/23 04:22:18;;;;;;;;;;;;;;;11.03;77.08;99941.42;102316;1124;80424;-60
2021/05/23 04:24:23;;;;;;;;;;;;;;;11.06;76.97;99940.19;102490;1120;80115;-58
2021/05/23 04:26:28;;;;;;;;;;;;;;;11.19;76.86;99946.45;102322;1123;80892;-58
2021/05/23 04:28:33;;;;;;;;;;;;;;;11.33;77.03;99943.77;102482;1120;80126;-59
2021/05/23 04:30:40;;;;;;;;;;;;;;;11.39;76.79;99949.20;102453;1121;80828;-59
2021/05/23 04:32:44;;;;;;;;;;;;;;;11.59;76.66;99946.53;102456;1120;80104;-59
2021/05/23 04:34:49;;;;;;;;;;;;;;;11.76;76.35;99958.63;102472;1120;83561;-58
2021/05/23 04:36:54;;;;;;;;;;;;;;;12.16;76.85;99954.88;102335;1123;81147;-58
2021/05/23 04:39:02;;;;;;;;;;;;;;;13.33;76.77;99960.10;102422;1120;79873;-58
2021/05/23 04:41:07;;;;;;;;;;;;;;;14.10;75.08;99960.57;102461;1120;80966;-59
2021/05/23 04:43:13;;;;;;;;;;;;;;;14.86;74.41;99962.12;102450;1120;83549;-58
2021/05/23 04:45:18;;;;;;;;;;;;;;;16.59;74.32;99952.75;102422;1121;81823;-59
2021/05/23 04:47:24;;;;;;;;;;;;;;;18.45;71.67;99952.66;102428;1121;82360;-59
2021/05/23 04:49:29;;;;;;;;;;;;;;;19.77;68.60;99956.80;102458;1120;80872;-57
2021/05/23 04:51:33;;;;;;;;;;;;;;;18.87;66.59;99956.55;102440;1120;81377;-57
2021/05/23 04:53:38;;;;;;;;;;;;;;;17.99;66.10;99951.14;102445;1121;80892;-57
2021/05/23 04:55:42;;;;;;;;;;;;;;;17.33;65.79;99969.02;102325;1123;81089;-58
2021/05/23 04:57:47;;;;;;;;;;;;;;;16.71;65.36;99973.48;102462;1120;82519;-57
2021/05/23 04:59:52;;;;;;;;;;;;;;;16.12;66.38;99976.43;102444;1121;81204;-58
2021/05/23 05:01:58;;;;;;;;;;;;;;;15.68;66.36;99988.66;102451;1120;81666;-58
2021/05/23 05:04:03;;;;;;;;;;;;;;;15.24;66.66;99973.55;102447;1120;81515;-58
2021/05/23 05:06:07;;;;;;;;;;;;;;;16.21;68.14;99969.55;102443;1121;81694;-58
2021/05/23 05:08:12;;;;;;;;;;;;;;;18.23;66.64;99975.32;102450;1120;81528;-58
2021/05/23 05:10:17;;;;;;;;;;;;;;;19.98;64.13;99969.59;102446;1120;81000;-58
2021/05/23 05:12:21;;;;;;;;;;;;;;;21.29;61.78;99975.10;102451;1121;81585;-58
2021/05/23 05:14:26;;;;;;;;;;;;;;;22.54;58.96;99959.84;102320;1123;80168;-59
2021/05/23 05:16:32;;;;;;;;;;;;;;;23.36;56.74;99966.73;102463;1120;80550;-57
2021/05/23 05:18:39;;;;;;;;;;;;;;;24.07;53.63;99962.43;102480;1120;80927;-59
2021/05/23 05:20:44;;;;;;;;;;;;;;;24.68;52.93;99964.65;102486;1120;81746;-59
2021/05/23 05:22:50;;;;;;;;;;;;;;;25.54;50.88;99967.24;102463;1120;81355;-59
2021/05/23 05:24:55;;;;;;;;;;;;;;;25.75;47.86;99953.92;102472;1120;81766;-59
2021/05/23 05:27:00;;;;;;;;;;;;;;;26.20;48.21;99956.00;102463;1121;79985;-58
2021/05/23 05:29:05;;;;;;;;;;;;;;;26.85;45.69;99964.24;102304;1123;81816;-58
2021/05/23 05:31:10;;;;;;;;;;;;;;;27.25;44.29;99963.41;102433;1120;81864;-58
2021/05/23 05:33:18;;;;;;;;;;;;;;;28.01;43.13;99964.48;102457;1120;81680;-58
2021/05/23 05:35:23;;;;;;;;;;;;;;;28.34;42.83;99967.86;102448;1121;80630;-58
2021/05/23 05:37:27;;;;;;;;;;;;;;;28.88;40.42;99966.70;102459;1121;81667;-57
2021/05/23 05:39:32;;;;;;;;;;;;;;;28.78;39.42;99964.20;102455;1121;80516;-58
2021/05/23 05:41:37;;;;;;;;;;;;;;;29.15;39.70;99966.47;102448;1120;81081;-58
2021/05/23 05:43:42;;;;;;;;;;;;;;;29.72;38.36;99965.30;102444;1120;82379;-58
2021/05/23 05:45:46;;;;;;;;;;;;;;;29.89;37.85;99972.08;102416;1121;81539;-59
2021/05/23 05:47:51;;;;;;;;;;;;;;;29.83;37.20;99968.64;102338;1123;80980;-58
2021/05/23 05:49:55;;;;;;;;;;;;;;;30.00;35.89;99970.58;102298;1123;80565;-58
2021/05/23 05:52:00;;;;;;;;;;;;;;;29.58;35.56;99974.97;102433;1120;82224;-58
2021/05/23 05:54:08;;;;;;;;;;;;;;;29.86;35.13;99965.17;102366;1123;82471;-58
2021/05/23 05:56:13;;;;;;;;;;;;;;;29.86;34.06;99970.74;102318;1123;80963;-58
2021/05/23 05:58:18;;;;;;;;;;;;;;;30.25;34.33;99970.56;102462;1121;81827;-57
2021/05/23 06:00:23;;;;;;;;;;;;;;;30.50;34.28;99971.70;102443;1120;80550;-57
2021/05/23 06:02:28;;;;;;;;;;;;;;;30.30;34.08;99966.77;102444;1121;80053;-57
2021/05/23 06:04:35;;;;;;;;;;;;;;;30.87;33.17;99970.94;102288;1123;80973;-58
2021/05/23 06:06:41;;;;;;;;;;;;;;;30.96;32.50;99963.36;102331;1123;80448;-57
2021/05/23 06:08:48;;;;;;;;;;;;;;;31.16;31.57;99977.71;102328;1123;80453;-57
2021/05/23 06:10:53;;;;;;;;;;;;;;;31.36;31.31;99969.41;102447;1120;81373;-58
2021/05/23 06:12:58;;;;;;;;;;;;;;;31.46;31.62;99968.18;102457;1120;80407;-55
2021/05/23 06:15:03;;;;;;;;;;;;;;;31.70;31.07;99973.95;102481;1120;81137;-57
2021/05/23 06:17:07;;;;;;;;;;;;;;;31.91;29.32;99985.15;102472;1120;81782;-58
2021/05/23 06:19:12;;;;;;;;;;;;;;;31.47;30.26;99975.44;102442;1120;82030;-55
2021/05/23 06:21:17;;;;;;;;;;;;;;;31.91;29.51;99972.00;102439;1120;80348;-54
2021/05/23 06:23:25;;;;;;;;;;;;;;;32.09;29.85;99975.48;102484;1120;81084;-55
2021/05/23 06:25:29;;;;;;;;;;;;;;;32.49;28.40;99978.55;102462;1120;81055;-58
2021/05/23 06:27:35;;;;;;;;;;;;;;;32.49;28.66;99979.38;102454;1120;80566;-58
2021/05/23 06:29:39;;;;;;;;;;;;;;;32.49;28.79;99978.55;102479;1120;80064;-58
2021/05/23 06:31:44;;;;;;;;;;;;;;;32.61;29.00;99978.60;102336;1123;80104;-58
2021/05/23 06:33:48;;;;;;;;;;;;;;;32.39;29.10;99984.56;102330;1123;82715;-56
2021/05/23 06:35:53;;;;;;;;;;;;;;;32.64;28.15;99986.30;102488;1121;80446;-55
2021/05/23 06:37:58;;;;;;;;;;;;;;;32.67;28.38;99992.03;102316;1123;80131;-55
2021/05/23 06:40:03;;;;;;;;;;;;;;;32.25;28.24;99986.86;102473;1120;81010;-55
2021/05/23 06:42:07;;;;;;;;;;;;;;;32.30;28.21;99992.23;102474;1120;81725;-55
2021/05/23 06:44:13;;;;;;;;;;;;;;;32.77;28.82;99985.19;102471;1120;82639;-60
2021/05/23 06:46:20;;;;;;;;;;;;;;;32.56;27.46;99992.81;102466;1120;82330;-58
2021/05/23 06:48:27;;;;;;;;;;;;;;;30.60;28.79;99998.42;102470;1121;81154;-57
2021/05/23 06:50:31;;;;;;;;;;;;;;;29.32;30.49;99999.95;102352;1123;82311;-55
2021/05/23 06:52:36;;;;;;;;;;;;;;;29.85;30.65;100001.72;102318;1123;80162;-58
2021/05/23 06:54:40;;;;;;;;;;;;;;;30.55;30.13;100002.19;102320;1123;81329;-60
2021/05/23 06:56:45;;;;;;;;;;;;;;;31.83;29.73;99997.22;102460;1120;80017;-58
2021/05/23 06:58:50;;;;;;;;;;;;;;;32.66;27.31;99997.99;102448;1120;80259;-58
2021/05/23 07:00:54;;;;;;;;;;;;;;;32.46;27.48;100001.62;102497;1120;80973;-58
2021/05/23 07:03:02;;;;;;;;;;;;;;;32.26;27.89;99996.87;102471;1120;81403;-58
2021/05/23 07:05:11;;;;;;;;;;;;;;;31.84;28.27;99999.66;102508;1121;82335;-58
2021/05/23 07:07:16;;;;;;;;;;;;;;;32.03;28.50;100002.00;102476;1120;80957;-57
2021/05/23 07:09:20;;;;;;;;;;;;;;;32.09;28.80;100006.22;102467;1120;81258;-57
2021/05/23 07:11:25;;;;;;;;;;;;;;;32.68;27.66;100001.25;102445;1120;81017;-57
2021/05/23 07:13:29;;;;;;;;;;;;;;;33.36;27.86;99998.78;102494;1121;81475;-57
2021/05/23 07:15:34;;;;;;;;;;;;;;;33.55;26.93;100013.00;102463;1120;82257;-56
2021/05/23 07:17:39;;;;;;;;;;;;;;;33.94;26.81;100009.47;102465;1121;80641;-58
2021/05/23 07:19:43;;;;;;;;;;;;;;;34.40;26.54;100014.48;102470;1120;81794;-58
2021/05/23 07:21:48;;;;;;;;;;;;;;;34.12;25.42;100008.03;102453;1120;80994;-56
2021/05/23 07:23:53;;;;;;;;;;;;;;;34.22;25.56;100012.34;102487;1120;80124;-58
2021/05/23 07:25:58;;;;;;;;;;;;;;;34.24;25.68;100016.42;102468;1120;80496;-58
2021/05/23 07:28:03;;;;;;;;;;;;;;;33.96;25.36;100021.14;102488;1120;81348;-58
2021/05/23 07:30:12;;;;;;;;;;;;;;;33.47;26.19;100017.57;102464;1120;81738;-58
2021/05/23 07:32:17;;;;;;;;;;;;;;;32.80;26.33;100029.24;102456;1120;80645;-59
2021/05/23 07:34:25;;;;;;;;;;;;;;;31.55;26.75;100030.42;102462;1120;80637;-58
2021/05/23 07:36:29;;;;;;;;;;;;;;;31.32;27.65;100023.44;102480;1120;80286;-58
2021/05/23 07:38:35;;;;;;;;;;;;;;;30.74;28.23;100027.73;102469;1120;80993;-58
2021/05/23 07:40:40;;;;;;;;;;;;;;;30.09;28.91;100041.88;102468;1120;80594;-59
2021/05/23 07:42:47;;;;;;;;;;;;;;;30.02;28.89;100038.78;102333;1123;82528;-58
2021/05/23 07:44:52;;;;;;;;;;;;;;;29.30;28.68;100043.16;102480;1120;82024;-58
2021/05/23 07:46:56;;;;;;;;;;;;;;;28.79;28.77;100052.06;102467;1120;82228;-59
2021/05/23 07:49:03;;;;;;;;;;;;;;;28.41;30.13;100057.97;102460;1121;80644;-58
2021/05/23 07:51:09;;;;;;;;;;;;;;;28.57;30.62;100053.67;102292;1124;80720;-58
2021/05/23 07:53:13;;;;;;;;;;;;;;;28.59;30.77;100064.49;102442;1120;81846;-58
2021/05/23 07:55:18;;;;;;;;;;;;;;;28.21;30.79;100061.23;102481;1120;81844;-58
2021/05/23 07:57:29;;;;;;;;;;;;;;;28.44;31.59;100062.91;102443;1120;81780;-61
2021/05/23 07:59:37;;;;;;;;;;;;;;;28.48;30.87;100068.66;102470;1120;80453;-60
2021/05/23 08:01:42;;;;;;;;;;;;;;;28.09;30.24;100066.53;102475;1120;80980;-58
2021/05/23 08:03:50;;;;;;;;;;;;;;;27.35;30.88;100063.09;102452;1120;80901;-58
2021/05/23 08:05:56;;;;;;;;;;;;;;;26.85;32.10;100061.27;102487;1120;79745;-59
2021/05/23 08:08:00;;;;;;;;;;;;;;;26.67;32.16;100067.67;102457;1120;81017;-58
2021/05/23 08:10:07;;;;;;;;;;;;;;;26.21;32.27;100071.17;102468;1120;80984;-58
2021/05/23 08:12:12;;;;;;;;;;;;;;;25.57;33.50;100073.72;102438;1120;79984;-58
2021/05/23 08:14:17;;;;;;;;;;;;;;;25.08;33.51;100072.02;102447;1120;80908;-58
2021/05/23 08:16:22;;;;;;;;;;;;;;;25.32;34.47;100068.45;102429;1120;81755;-58
2021/05/23 08:18:29;;;;;;;;;;;;;;;25.43;35.41;100081.05;102441;1120;81198;-59
2021/05/23 08:20:33;;;;;;;;;;;;;;;25.37;34.97;100077.52;102475;1120;80180;-56
2021/05/23 08:22:38;;;;;;;;;;;;;;;25.27;34.50;100076.81;102456;1121;81732;-58
2021/05/23 08:24:43;;;;;;;;;;;;;;;25.09;34.64;100081.14;102435;1120;81744;-59
2021/05/23 08:26:47;;;;;;;;;;;;;;;25.08;35.41;100085.01;102424;1121;81392;-59
2021/05/23 08:28:52;;;;;;;;;;;;;;;25.65;35.13;100078.59;102443;1120;80792;-59
2021/05/23 08:30:56;;;;;;;;;;;;;;;26.70;34.66;100072.61;102469;1120;82224;-57
2021/05/23 08:33:01;;;;;;;;;;;;;;;27.89;33.93;100080.84;102466;1120;81408;-59
2021/05/23 08:35:10;;;;;;;;;;;;;;;28.90;32.52;100087.61;102456;1120;82314;-58
2021/05/23 08:37:16;;;;;;;;;;;;;;;29.58;31.50;100070.45;102320;1123;80117;-58
2021/05/23 08:39:22;;;;;;;;;;;;;;;30.17;30.70;100070.89;102444;1120;81239;-58
2021/05/23 08:41:27;;;;;;;;;;;;;;;30.86;29.90;100075.30;102454;1120;81272;-58
2021/05/23 08:43:32;;;;;;;;;;;;;;;30.76;28.76;100078.45;102430;1120;81832;-57
2021/05/23 08:45:40;;;;;;;;;;;;;;;30.71;29.34;100075.81;102452;1121;81557;-56
2021/05/23 08:47:45;;;;;;;;;;;;;;;31.31;29.38;100060.91;102468;1120;81112;-56
2021/05/23 08:49:53;;;;;;;;;;;;;;;31.87;28.76;100068.83;102455;1120;82424;-55
2021/05/23 08:51:58;;;;;;;;;;;;;;;31.80;27.44;100068.56;102441;1120;81585;-55
2021/05/23 08:54:04;;;;;;;;;;;;;;;31.25;26.97;100078.99;102477;1120;81976;-56
2021/05/23 08:56:09;;;;;;;;;;;;;;;30.71;28.42;100075.81;102469;1120;82040;-55
2021/05/23 08:58:16;;;;;;;;;;;;;;;29.90;27.82;100077.59;102347;1123;80935;-54
2021/05/23 09:00:24;;;;;;;;;;;;;;;29.25;28.54;100083.89;102321;1123;80435;-55
2021/05/23 09:02:29;;;;;;;;;;;;;;;28.74;28.36;100082.75;102472;1120;81089;-55
2021/05/23 09:04:34;;;;;;;;;;;;;;;28.10;28.91;100087.63;102477;1121;81018;-54
2021/05/23 09:06:39;;;;;;;;;;;;;;;28.21;29.88;100091.79;102439;1120;80827;-54
2021/05/23 09:08:43;;;;;;;;;;;;;;;28.31;28.72;100096.30;102463;1120;80705;-54
2021/05/23 09:10:53;;;;;;;;;;;;;;;27.95;29.29;100093.48;102431;1121;80755;-57
2021/05/23 09:12:58;;;;;;;;;;;;;;;27.64;29.32;100098.86;102446;1120;80820;-58
2021/05/23 09:15:15;;;;;;;;;;;;;;;26.93;30.05;100093.84;102505;1120;81638;-60
2021/05/23 09:17:23;;;;;;;;;;;;;;;26.73;30.02;100094.15;102486;1120;81643;-58
2021/05/23 09:19:27;;;;;;;;;;;;;;;26.16;30.86;100106.42;102487;1120;79567;-58
2021/05/23 09:21:34;;;;;;;;;;;;;;;25.60;30.93;100109.89;102293;1123;81153;-57
2021/05/23 09:23:46;;;;;;;;;;;;;;;25.41;32.34;100102.66;102483;1120;80997;-58
2021/05/23 09:25:51;;;;;;;;;;;;;;;25.47;32.56;100096.78;102483;1120;81499;-57
2021/05/23 09:27:56;;;;;;;;;;;;;;;25.50;32.29;100098.96;102456;1121;81749;-58
2021/05/23 09:30:07;;;;;;;;;;;;;;;25.33;32.80;100100.50;102461;1120;80338;-58
2021/05/23 09:32:18;;;;;;;;;;;;;;;25.43;33.10;100097.64;102472;1121;79985;-57
2021/05/23 09:34:24;;;;;;;;;;;;;;;25.61;32.50;100094.95;102459;1120;81197;-58
2021/05/23 09:36:30;;;;;;;;;;;;;;;25.68;32.99;100091.84;102499;1120;79536;-58
2021/05/23 09:38:39;;;;;;;;;;;;;;;25.46;33.63;100091.52;102457;1121;80039;-58
2021/05/23 09:40:45;;;;;;;;;;;;;;;25.46;33.04;100097.89;102432;1120;80508;-56
2021/05/23 09:42:52;;;;;;;;;;;;;;;25.33;33.77;100097.73;102470;1120;79866;-56
2021/05/23 09:44:59;;;;;;;;;;;;;;;25.49;33.84;100100.06;102460;1120;80069;-55
2021/05/23 09:47:10;;;;;;;;;;;;;;;25.54;33.77;100096.44;102449;1121;81638;-54
2021/05/23 09:49:17;;;;;;;;;;;;;;;25.47;33.67;100107.84;102320;1121;80879;-55
2021/05/23 09:51:22;;;;;;;;;;;;;;;25.01;33.30;100118.55;102354;1123;80269;-56
2021/05/23 09:53:32;;;;;;;;;;;;;;;24.46;33.95;100121.73;102372;1121;80217;-54
2021/05/23 09:55:36;;;;;;;;;;;;;;;24.41;34.83;100124.55;102325;1123;81551;-54
2021/05/23 09:57:43;;;;;;;;;;;;;;;24.45;35.12;100118.14;102336;1124;80561;-54
2021/05/23 09:59:57;;;;;;;;;;;;;;;24.36;34.74;100114.37;102325;1124;81149;-54
2021/05/23 10:02:09;;;;;;;;;;;;;;;24.20;35.65;100109.23;102327;1123;81964;-55
2021/05/23 10:04:22;;;;;;;;;;;;;;;23.92;35.26;100116.26;102360;1123;81513;-63
2021/05/23 10:06:28;;;;;;;;;;;;;;;23.73;35.43;100121.59;102339;1123;80915;-63
2021/05/23 10:08:33;;;;;;;;;;;;;;;23.81;35.65;100118.25;102342;1123;81670;-59
2021/05/23 10:10:41;;;;;;;;;;;;;;;24.04;36.66;100102.92;102321;1123;79776;-58
2021/05/23 10:12:46;;;;;;;;;;;;;;;24.01;36.26;100118.13;102355;1123;81462;-58
2021/05/23 10:14:51;;;;;;;;;;;;;;;24.02;35.83;100124.47;102337;1123;79898;-58
2021/05/23 10:16:56;;;;;;;;;;;;;;;23.96;35.68;100123.67;102304;1124;81185;-59
2021/05/23 10:19:01;;;;;;;;;;;;;;;24.25;35.93;100123.00;102301;1124;81947;-59
2021/05/23 10:21:06;;;;;;;;;;;;;;;24.57;36.70;100123.31;102320;1123;81535;-59
2021/05/23 10:23:15;;;;;;;;;;;;;;;24.91;36.15;100120.58;102431;1120;81128;-59
2021/05/23 10:25:20;;;;;;;;;;;;;;;24.75;35.64;100119.84;102272;1123;81646;-59
2021/05/23 10:27:26;;;;;;;;;;;;;;;24.59;35.80;100132.13;102251;1123;81668;-59
2021/05/23 10:29:32;;;;;;;;;;;;;;;24.57;35.79;100126.08;102283;1123;80541;-59
2021/05/23 10:31:38;;;;;;;;;;;;;;;24.41;35.61;100122.61;102337;1124;81953;-58
2021/05/23 10:33:51;;;;;;;;;;;;;;;24.24;34.83;100122.17;102282;1123;80879;-58
2021/05/23 10:35:56;;;;;;;;;;;;;;;23.94;35.29;100130.59;102299;1123;80739;-57
2021/05/23 10:38:08;;;;;;;;;;;;;;;23.97;36.02;100124.50;102312;1123;81415;-57
2021/05/23 10:40:22;;;;;;;;;;;;;;;24.27;35.98;100129.05;102349;1123;81491;-56
2021/05/23 10:42:28;;;;;;;;;;;;;;;24.52;36.42;100123.36;102324;1123;81428;-56
2021/05/23 10:44:41;;;;;;;;;;;;;;;24.48;35.51;100123.09;102481;1120;81781;-60
2021/05/23 10:46:49;;;;;;;;;;;;;;;24.34;35.07;100126.78;102537;1120;81503;-61
2021/05/23 10:48:59;;;;;;;;;;;;;;;24.20;35.01;100134.08;102462;1121;80547;-60